createdAt,value
2022-09-15T00:00:06.283Z,97.67
2022-09-15T00:01:06.283Z,97.56
2022-09-15T00:02:06.346Z,97.67
2022-09-15T00:03:06.339Z,97.87
2022-09-15T00:04:06.248Z,97.36
2022-09-15T00:05:06.249Z,97.52
2022-09-15T00:06:06.237Z,97.56
2022-09-15T00:07:06.257Z,97.06
2022-09-15T00:08:06.224Z,96.51
2022-09-15T00:09:06.224Z,96.66
2022-09-15T00:10:06.217Z,96.66
2022-09-15T00:11:06.261Z,96.96
2022-09-15T00:12:06.191Z,97.26
2022-09-15T00:13:06.183Z,97.41
2022-09-15T00:14:06.183Z,97.41
2022-09-15T00:15:06.170Z,97.41
2022-09-15T00:16:06.164Z,97.00
2022-09-15T00:17:06.203Z,97.11
2022-09-15T00:18:06.144Z,96.90
2022-09-15T00:19:06.134Z,97.51
2022-09-15T00:20:06.126Z,97.20
2022-09-15T00:21:06.126Z,97.51
2022-09-15T00:22:06.117Z,96.39
2022-09-15T00:23:06.140Z,96.80
2022-09-15T00:24:06.095Z,97.11
2022-09-15T00:25:06.091Z,97.00
2022-09-15T00:26:06.088Z,97.11
2022-09-15T00:27:06.078Z,96.90
2022-09-15T00:28:06.061Z,97.11
2022-09-15T00:29:06.144Z,97.20
2022-09-15T00:30:06.072Z,97.00
2022-09-15T00:31:06.114Z,97.06
2022-09-15T00:32:06.035Z,97.51
2022-09-15T00:33:06.030Z,97.51
2022-09-15T00:34:06.011Z,97.31
2022-09-15T00:35:06.003Z,97.20
2022-09-15T00:36:06.015Z,96.66
2022-09-15T00:37:05.996Z,96.80
2022-09-15T00:38:05.990Z,97.31
2022-09-15T00:39:05.994Z,97.00
2022-09-15T00:40:06.019Z,96.86
2022-09-15T00:41:05.981Z,96.75
2022-09-15T00:42:05.962Z,96.90
2022-09-15T00:43:05.943Z,97.06
2022-09-15T00:44:05.937Z,96.75
2022-09-15T00:45:05.932Z,96.45
2022-09-15T00:46:06.021Z,96.66
2022-09-15T00:47:18.863Z,96.61
2022-09-15T00:48:06.897Z,96.91
2022-09-15T00:49:05.896Z,96.15
2022-09-15T00:50:05.888Z,95.50
2022-09-15T00:51:05.887Z,95.43
2022-09-15T00:52:05.868Z,95.59
2022-09-15T00:53:05.878Z,95.74
2022-09-15T00:54:05.880Z,95.54
2022-09-15T00:55:05.849Z,95.34
2022-09-15T00:56:05.838Z,95.23
2022-09-15T00:57:05.828Z,95.84
2022-09-15T00:58:05.825Z,95.23
2022-09-15T00:59:05.817Z,95.54
2022-09-15T01:00:05.830Z,96.75
2022-09-15T01:01:05.849Z,96.60
2022-09-15T01:02:05.834Z,96.90
2022-09-15T01:03:05.799Z,96.66
2022-09-15T01:04:05.771Z,97.06
2022-09-15T01:05:05.764Z,97.31
2022-09-15T01:06:05.766Z,96.66
2022-09-15T01:07:05.777Z,96.50
2022-09-15T01:08:05.748Z,97.00
2022-09-15T01:09:05.732Z,96.90
2022-09-15T01:10:05.743Z,97.00
2022-09-15T01:11:05.716Z,96.70
2022-09-15T01:12:05.716Z,96.39
2022-09-15T01:13:05.726Z,96.39
2022-09-15T01:14:05.735Z,96.50
2022-09-15T01:15:05.703Z,95.89
2022-09-15T01:16:05.733Z,96.80
2022-09-15T01:17:05.779Z,96.80
2022-09-15T01:18:05.658Z,97.61
2022-09-15T01:19:05.645Z,97.61
2022-09-15T01:20:05.657Z,98.12
2022-09-15T01:21:05.629Z,98.16
2022-09-15T01:22:05.644Z,97.76
2022-09-15T01:23:05.616Z,97.61
2022-09-15T01:24:05.613Z,97.11
2022-09-15T01:25:05.597Z,97.15
2022-09-15T01:26:05.590Z,96.90
2022-09-15T01:27:18.726Z,96.90
2022-09-15T01:28:06.568Z,97.00
2022-09-15T01:29:05.564Z,97.51
2022-09-15T01:30:05.559Z,97.51
2022-09-15T01:31:05.551Z,97.61
2022-09-15T01:32:05.632Z,97.20
2022-09-15T01:33:05.540Z,97.71
2022-09-15T01:34:05.526Z,97.71
2022-09-15T01:35:05.512Z,97.41
2022-09-15T01:36:05.508Z,97.81
2022-09-15T01:37:05.506Z,97.71
2022-09-15T01:38:05.507Z,97.81
2022-09-15T01:39:05.483Z,97.51
2022-09-15T01:40:05.522Z,96.75
2022-09-15T01:41:05.479Z,97.00
2022-09-15T01:42:05.479Z,97.31
2022-09-15T01:43:05.460Z,97.11
2022-09-15T01:44:05.456Z,97.20
2022-09-15T01:45:05.447Z,97.00
2022-09-15T01:46:05.500Z,97.05
2022-09-15T01:47:05.439Z,97.05
2022-09-15T01:48:05.411Z,97.15
2022-09-15T01:49:05.405Z,96.84
2022-09-15T01:50:05.410Z,96.60
2022-09-15T01:51:05.390Z,95.94
2022-09-15T01:52:05.401Z,95.83
2022-09-15T01:53:05.396Z,95.42
2022-09-15T01:54:05.372Z,95.32
2022-09-15T01:55:05.351Z,95.67
2022-09-15T01:56:05.343Z,96.79
2022-09-15T01:57:05.341Z,95.87
2022-09-15T01:58:05.343Z,96.79
2022-09-15T01:59:05.320Z,95.78
2022-09-15T02:00:05.315Z,97.09
2022-09-15T02:01:05.330Z,97.14
2022-09-15T02:02:05.341Z,97.14
2022-09-15T02:03:05.305Z,95.57
2022-09-15T02:04:05.287Z,94.80
2022-09-15T02:05:05.281Z,95.31
2022-09-15T02:06:05.255Z,95.92
2022-09-15T02:07:05.257Z,97.08
2022-09-15T02:08:05.266Z,96.88
2022-09-15T02:09:05.258Z,96.98
2022-09-15T02:10:05.232Z,97.14
2022-09-15T02:11:05.219Z,96.88
2022-09-15T02:12:05.205Z,96.98
2022-09-15T02:13:05.209Z,96.43
2022-09-15T02:14:05.186Z,96.63
2022-09-15T02:15:05.206Z,96.78
2022-09-15T02:16:05.265Z,96.83
2022-09-15T02:17:05.183Z,96.73
2022-09-15T02:18:05.155Z,96.58
2022-09-15T02:19:05.178Z,96.63
2022-09-15T02:20:05.145Z,96.83
2022-09-15T02:21:05.158Z,96.63
2022-09-15T02:22:05.129Z,96.63
2022-09-15T02:23:05.113Z,96.73
2022-09-15T02:24:05.102Z,95.72
2022-09-15T02:25:05.099Z,95.66
2022-09-15T02:26:05.097Z,96.17
2022-09-15T02:27:05.106Z,95.46
2022-09-15T02:28:05.078Z,96.58
2022-09-15T02:29:05.064Z,96.07
2022-09-15T02:30:05.056Z,96.17
2022-09-15T02:31:05.186Z,96.98
2022-09-15T02:32:07.275Z,96.88
2022-09-15T02:33:05.031Z,96.17
2022-09-15T02:34:05.034Z,96.58
2022-09-15T02:35:05.021Z,96.88
2022-09-15T02:36:05.015Z,96.68
2022-09-15T02:37:05.061Z,96.58
2022-09-15T02:38:04.990Z,97.49
2022-09-15T02:39:04.983Z,97.49
2022-09-15T02:40:05.083Z,96.68
2022-09-15T02:41:04.981Z,97.19
2022-09-15T02:42:04.955Z,97.19
2022-09-15T02:43:04.965Z,96.78
2022-09-15T02:44:04.945Z,96.78
2022-09-15T02:45:04.946Z,97.19
2022-09-15T02:46:04.997Z,96.78
2022-09-15T02:47:04.920Z,96.78
2022-09-15T02:48:04.907Z,96.88
2022-09-15T02:49:04.900Z,96.88
2022-09-15T02:50:04.891Z,96.98
2022-09-15T02:51:04.904Z,97.29
2022-09-15T02:52:04.872Z,97.89
2022-09-15T02:53:04.882Z,97.69
2022-09-15T02:54:04.854Z,97.64
2022-09-15T02:55:04.844Z,96.98
2022-09-15T02:56:04.871Z,96.78
2022-09-15T02:57:04.833Z,96.88
2022-09-15T02:58:04.813Z,96.78
2022-09-15T02:59:04.837Z,96.58
2022-09-15T03:00:04.815Z,97.03
2022-09-15T03:01:04.880Z,97.03
2022-09-15T03:02:04.832Z,96.92
2022-09-15T03:03:04.777Z,97.03
2022-09-15T03:04:04.774Z,97.13
2022-09-15T03:05:04.787Z,97.33
2022-09-15T03:06:04.749Z,97.13
2022-09-15T03:07:04.748Z,96.62
2022-09-15T03:08:04.730Z,96.92
2022-09-15T03:09:04.755Z,97.64
2022-09-15T03:10:04.727Z,97.53
2022-09-15T03:11:04.717Z,97.23
2022-09-15T03:12:04.707Z,96.83
2022-09-15T03:13:04.702Z,96.98
2022-09-15T03:14:04.687Z,96.98
2022-09-15T03:15:04.701Z,97.23
2022-09-15T03:16:04.718Z,96.72
2022-09-15T03:17:04.665Z,97.33
2022-09-15T03:18:04.654Z,97.33
2022-09-15T03:19:04.663Z,97.84
2022-09-15T03:20:04.664Z,97.94
2022-09-15T03:21:04.639Z,97.94
2022-09-15T03:22:04.623Z,98.14
2022-09-15T03:23:04.612Z,97.80
2022-09-15T03:24:04.612Z,97.44
2022-09-15T03:25:04.623Z,97.19
2022-09-15T03:26:04.610Z,97.29
2022-09-15T03:27:04.587Z,96.98
2022-09-15T03:28:04.573Z,97.23
2022-09-15T03:29:04.591Z,96.88
2022-09-15T03:30:04.561Z,96.68
2022-09-15T03:31:04.588Z,96.92
2022-09-15T03:32:04.535Z,96.78
2022-09-15T03:33:04.529Z,96.88
2022-09-15T03:34:04.519Z,96.78
2022-09-15T03:35:04.538Z,96.68
2022-09-15T03:36:04.511Z,97.19
2022-09-15T03:37:04.522Z,96.58
2022-09-15T03:38:04.491Z,96.88
2022-09-15T03:39:04.504Z,96.78
2022-09-15T03:40:04.543Z,96.88
2022-09-15T03:41:04.473Z,97.08
2022-09-15T03:42:04.483Z,96.78
2022-09-15T03:43:04.450Z,96.83
2022-09-15T03:44:04.442Z,97.14
2022-09-15T03:45:04.442Z,96.02
2022-09-15T03:46:04.491Z,95.92
2022-09-15T03:47:04.416Z,95.31
2022-09-15T03:48:04.407Z,94.90
2022-09-15T03:49:04.415Z,94.90
2022-09-15T03:50:04.423Z,94.70
2022-09-15T03:51:04.383Z,95.01
2022-09-15T03:52:04.373Z,95.41
2022-09-15T03:53:04.363Z,96.17
2022-09-15T03:54:04.353Z,96.47
2022-09-15T03:55:04.366Z,96.17
2022-09-15T03:56:04.337Z,95.76
2022-09-15T03:57:04.350Z,95.97
2022-09-15T03:58:04.321Z,95.36
2022-09-15T03:59:04.340Z,95.01
2022-09-15T04:00:04.300Z,95.31
2022-09-15T04:01:04.415Z,95.46
2022-09-15T04:02:04.330Z,94.85
2022-09-15T04:03:04.277Z,96.07
2022-09-15T04:04:04.265Z,95.46
2022-09-15T04:05:04.286Z,95.76
2022-09-15T04:06:04.255Z,96.17
2022-09-15T04:07:04.244Z,96.27
2022-09-15T04:08:04.238Z,96.07
2022-09-15T04:09:04.229Z,96.02
2022-09-15T04:10:04.227Z,95.41
2022-09-15T04:11:04.230Z,95.36
2022-09-15T04:12:04.198Z,95.21
2022-09-15T04:13:04.224Z,95.21
2022-09-15T04:14:04.189Z,95.21
2022-09-15T04:15:04.180Z,95.10
2022-09-15T04:16:04.211Z,95.31
2022-09-15T04:17:04.160Z,94.90
2022-09-15T04:18:04.139Z,94.90
2022-09-15T04:19:04.166Z,94.90
2022-09-15T04:20:04.136Z,94.09
2022-09-15T04:21:04.122Z,94.60
2022-09-15T04:22:04.119Z,94.60
2022-09-15T04:23:04.105Z,95.01
2022-09-15T04:24:04.089Z,95.01
2022-09-15T04:25:04.112Z,95.01
2022-09-15T04:26:04.078Z,95.10
2022-09-15T04:27:04.106Z,95.92
2022-09-15T04:28:04.054Z,95.82
2022-09-15T04:29:04.925Z,95.41
2022-09-15T04:30:04.043Z,95.41
2022-09-15T04:31:04.083Z,95.31
2022-09-15T04:32:04.029Z,95.82
2022-09-15T04:33:04.053Z,96.33
2022-09-15T04:34:04.006Z,96.27
2022-09-15T04:35:04.016Z,96.33
2022-09-15T04:36:03.985Z,96.33
2022-09-15T04:37:03.992Z,96.12
2022-09-15T04:38:03.971Z,96.63
2022-09-15T04:39:03.992Z,96.53
2022-09-15T04:40:04.021Z,96.12
2022-09-15T04:41:03.967Z,95.51
2022-09-15T04:42:03.954Z,96.12
2022-09-15T04:43:03.940Z,96.12
2022-09-15T04:44:03.926Z,95.92
2022-09-15T04:45:03.933Z,96.43
2022-09-15T04:46:03.915Z,96.12
2022-09-15T04:47:03.978Z,96.43
2022-09-15T04:48:03.901Z,96.12
2022-09-15T04:49:03.910Z,95.92
2022-09-15T04:50:03.875Z,96.98
2022-09-15T04:51:03.872Z,97.04
2022-09-15T04:52:07.732Z,97.29
2022-09-15T04:53:04.857Z,96.94
2022-09-15T04:54:03.843Z,96.47
2022-09-15T04:55:03.860Z,96.17
2022-09-15T04:56:03.830Z,96.12
2022-09-15T04:57:03.849Z,95.21
2022-09-15T04:58:03.818Z,96.27
2022-09-15T04:59:04.393Z,96.98
2022-09-15T05:00:03.794Z,96.17
2022-09-15T05:01:03.835Z,95.82
2022-09-15T05:02:03.823Z,96.47
2022-09-15T05:03:03.774Z,96.33
2022-09-15T05:04:03.767Z,96.17
2022-09-15T05:05:03.746Z,96.58
2022-09-15T05:06:03.756Z,96.17
2022-09-15T05:07:03.766Z,96.33
2022-09-15T05:08:03.713Z,96.68
2022-09-15T05:09:09.034Z,96.23
2022-09-15T05:10:03.710Z,95.36
2022-09-15T05:11:03.720Z,96.07
2022-09-15T05:12:03.682Z,95.66
2022-09-15T05:13:03.701Z,95.76
2022-09-15T05:14:03.671Z,96.37
2022-09-15T05:15:03.664Z,95.97
2022-09-15T05:16:03.692Z,96.37
2022-09-15T05:17:03.654Z,96.88
2022-09-15T05:18:03.645Z,96.98
2022-09-15T05:19:03.651Z,96.98
2022-09-15T05:20:03.619Z,96.78
2022-09-15T05:21:03.612Z,96.78
2022-09-15T05:22:03.608Z,96.88
2022-09-15T05:23:03.596Z,96.98
2022-09-15T05:24:03.603Z,96.98
2022-09-15T05:25:03.603Z,96.27
2022-09-15T05:26:03.575Z,95.92
2022-09-15T05:27:03.556Z,95.76
2022-09-15T05:28:03.550Z,96.17
2022-09-15T05:29:03.547Z,96.47
2022-09-15T05:30:31.776Z,97.08
2022-09-15T05:31:04.627Z,96.37
2022-09-15T05:32:03.523Z,96.78
2022-09-15T05:33:03.512Z,97.13
2022-09-15T05:34:03.524Z,97.19
2022-09-15T05:35:03.513Z,97.08
2022-09-15T05:36:03.507Z,96.83
2022-09-15T05:37:03.497Z,97.09
2022-09-15T05:38:03.465Z,95.73
2022-09-15T05:39:03.460Z,94.10
2022-09-15T05:40:08.292Z,93.25
2022-09-15T05:42:30.097Z,92.64
2022-09-15T05:43:30.113Z,92.74
2022-09-15T05:44:30.108Z,93.05
2022-09-15T05:45:30.086Z,93.05
2022-09-15T05:46:30.144Z,93.49
2022-09-15T05:47:30.073Z,93.15
2022-09-15T05:48:30.063Z,93.65
2022-09-15T05:49:30.043Z,93.19
2022-09-15T05:50:30.037Z,93.09
2022-09-15T05:51:30.053Z,92.84
2022-09-15T05:52:30.045Z,92.58
2022-09-15T05:53:30.023Z,92.79
2022-09-15T05:54:30.031Z,92.99
2022-09-15T05:55:29.997Z,92.89
2022-09-15T05:56:29.985Z,93.49
2022-09-15T05:57:29.997Z,93.60
2022-09-15T05:58:29.969Z,93.40
2022-09-15T05:59:29.957Z,93.49
2022-09-15T06:00:29.948Z,92.89
2022-09-15T06:01:30.035Z,92.74
2022-09-15T06:02:29.959Z,92.44
2022-09-15T06:03:31.079Z,92.03
2022-09-15T06:04:29.923Z,91.83
2022-09-15T06:05:29.905Z,91.63
2022-09-15T06:06:29.900Z,91.32
2022-09-15T06:07:29.884Z,91.32
2022-09-15T06:08:29.878Z,90.92
2022-09-15T06:09:29.884Z,90.77
2022-09-15T06:10:29.860Z,89.72
2022-09-15T06:11:29.859Z,89.81
2022-09-15T06:12:29.857Z,90.26
2022-09-15T06:13:29.836Z,89.21
2022-09-15T06:14:29.826Z,89.41
2022-09-15T06:15:29.839Z,89.31
2022-09-15T06:16:29.856Z,87.28
2022-09-15T06:17:29.803Z,88.54
2022-09-15T06:18:29.793Z,88.84
2022-09-15T06:19:29.789Z,89.39
2022-09-15T06:20:29.777Z,89.80
2022-09-15T06:21:29.795Z,88.99
2022-09-15T06:22:29.756Z,90.61
2022-09-15T06:23:29.759Z,90.00
2022-09-15T06:24:29.748Z,89.84
2022-09-15T06:25:29.733Z,89.90
2022-09-15T06:26:29.726Z,89.54
2022-09-15T06:27:29.730Z,89.54
2022-09-15T06:28:29.706Z,90.05
2022-09-15T06:29:29.701Z,89.29
2022-09-15T06:30:29.693Z,87.61
2022-09-15T06:31:29.737Z,87.77
2022-09-15T06:32:29.702Z,87.48
2022-09-15T06:33:29.669Z,85.21
2022-09-15T06:34:29.665Z,83.78
2022-09-15T06:35:29.658Z,82.62
2022-09-15T06:36:29.643Z,79.62
2022-09-15T06:37:29.642Z,80.05
2022-09-15T06:38:29.640Z,77.59
2022-09-15T06:39:29.620Z,77.99
2022-09-15T06:40:29.664Z,76.78
2022-09-15T06:41:38.456Z,76.48
2022-09-15T06:42:30.687Z,77.28
2022-09-15T06:43:29.610Z,76.34
2022-09-15T06:44:29.605Z,75.67
2022-09-15T06:45:29.573Z,75.56
2022-09-15T06:46:29.624Z,76.17
2022-09-15T06:47:29.559Z,74.79
2022-09-15T06:48:29.546Z,74.69
2022-09-15T06:49:29.540Z,75.67
2022-09-15T06:50:29.545Z,76.75
2022-09-15T06:51:29.520Z,78.50
2022-09-15T06:52:29.571Z,79.82
2022-09-15T06:53:29.512Z,79.35
2022-09-15T06:54:29.490Z,81.17
2022-09-15T06:55:29.510Z,78.00
2022-09-15T06:56:29.486Z,78.10
2022-09-15T06:57:29.480Z,78.00
2022-09-15T06:58:29.467Z,77.66
2022-09-15T06:59:29.468Z,76.25
2022-09-15T07:00:29.462Z,76.86
2022-09-15T07:01:29.467Z,76.42
2022-09-15T07:02:29.565Z,73.58
2022-09-15T07:03:29.571Z,76.18
2022-09-15T07:04:29.422Z,73.25
2022-09-15T07:05:29.433Z,74.05
2022-09-15T07:06:29.403Z,73.75
2022-09-15T07:07:29.401Z,75.16
2022-09-15T07:08:29.392Z,76.18
2022-09-15T07:09:29.381Z,76.34
2022-09-15T07:10:29.389Z,72.61
2022-09-15T07:11:29.373Z,74.08
2022-09-15T07:12:29.373Z,73.11
2022-09-15T07:13:29.352Z,73.79
2022-09-15T07:14:29.344Z,73.88
2022-09-15T07:15:29.346Z,74.46
2022-09-15T07:16:29.483Z,74.26
2022-09-15T07:17:29.318Z,73.95
2022-09-15T07:18:29.301Z,74.52
2022-09-15T07:19:29.302Z,72.51
2022-09-15T07:20:29.283Z,71.77
2022-09-15T07:21:29.286Z,70.23
2022-09-15T07:22:29.298Z,70.56
2022-09-15T07:23:29.260Z,71.16
2022-09-15T07:24:29.252Z,70.86
2022-09-15T07:25:29.251Z,69.92
2022-09-15T07:26:29.246Z,69.29
2022-09-15T07:27:29.251Z,68.04
2022-09-15T07:28:29.225Z,71.20
2022-09-15T07:29:29.217Z,73.61
2022-09-15T07:30:29.206Z,71.60
2022-09-15T07:31:29.249Z,69.89
2022-09-15T07:32:29.192Z,71.23
2022-09-15T07:33:29.195Z,71.91
2022-09-15T07:34:29.193Z,71.40
2022-09-15T07:35:29.193Z,69.85
2022-09-15T07:36:29.164Z,70.86
2022-09-15T07:37:29.160Z,71.36
2022-09-15T07:38:29.149Z,70.96
2022-09-15T07:39:29.151Z,68.85
2022-09-15T07:40:29.263Z,69.45
2022-09-15T07:41:29.128Z,69.42
2022-09-15T07:42:32.162Z,67.47
2022-09-15T07:43:29.124Z,68.71
2022-09-15T07:44:29.116Z,69.22
2022-09-15T07:45:29.132Z,68.65
2022-09-15T07:46:29.086Z,67.68
2022-09-15T07:47:29.077Z,68.68
2022-09-15T07:48:29.077Z,68.25
2022-09-15T07:49:29.061Z,67.82
2022-09-15T07:50:29.060Z,65.73
2022-09-15T07:51:29.070Z,66.71
2022-09-15T07:52:29.084Z,68.18
2022-09-15T07:53:29.031Z,67.75
2022-09-15T07:54:29.015Z,64.17
2022-09-15T07:55:29.032Z,65.57
2022-09-15T07:56:29.006Z,66.61
2022-09-15T07:57:28.993Z,66.44
2022-09-15T07:58:28.993Z,68.15
2022-09-15T07:59:28.981Z,67.44
2022-09-15T08:00:29.036Z,67.71
2022-09-15T08:01:29.033Z,64.84
2022-09-15T08:02:28.953Z,65.91
2022-09-15T08:03:28.944Z,65.58
2022-09-15T08:04:28.933Z,62.87
2022-09-15T08:05:28.934Z,63.98
2022-09-15T08:06:28.922Z,63.87
2022-09-15T08:07:28.933Z,64.81
2022-09-15T08:08:28.923Z,64.94
2022-09-15T08:09:28.897Z,65.61
2022-09-15T08:10:28.887Z,64.94
2022-09-15T08:11:28.886Z,64.74
2022-09-15T08:12:28.939Z,66.24
2022-09-15T08:13:28.854Z,68.59
2022-09-15T08:14:28.856Z,66.98
2022-09-15T08:15:28.835Z,68.18
2022-09-15T08:16:28.904Z,66.78
2022-09-15T08:17:28.823Z,67.88
2022-09-15T08:18:28.836Z,65.77
2022-09-15T08:19:28.811Z,64.64
2022-09-15T08:20:28.805Z,63.73
2022-09-15T08:21:28.813Z,63.46
2022-09-15T08:22:28.850Z,65.24
2022-09-15T08:23:28.777Z,65.44
2022-09-15T08:24:28.773Z,65.31
2022-09-15T08:25:28.782Z,61.57
2022-09-15T08:26:28.777Z,62.27
2022-09-15T08:27:28.762Z,63.34
2022-09-15T08:28:28.750Z,61.58
2022-09-15T08:29:28.917Z,62.01
2022-09-15T08:30:28.778Z,62.01
2022-09-15T08:31:28.789Z,63.31
2022-09-15T08:32:28.765Z,64.51
2022-09-15T08:33:28.706Z,63.04
2022-09-15T08:34:28.710Z,63.40
2022-09-15T08:35:28.704Z,65.77
2022-09-15T08:36:28.695Z,67.85
2022-09-15T08:37:28.669Z,68.65
2022-09-15T08:38:28.666Z,68.05
2022-09-15T08:39:28.659Z,68.15
2022-09-15T08:40:28.692Z,68.25
2022-09-15T08:41:28.644Z,69.49
2022-09-15T08:42:28.639Z,68.65
2022-09-15T08:43:28.619Z,67.98
2022-09-15T08:44:28.636Z,69.25
2022-09-15T08:45:28.611Z,66.58
2022-09-15T08:46:28.639Z,64.77
2022-09-15T08:47:28.592Z,65.88
2022-09-15T08:48:28.594Z,65.31
2022-09-15T08:49:50.145Z,65.91
2022-09-15T08:50:29.573Z,64.40
2022-09-15T08:51:28.558Z,63.73
2022-09-15T08:52:28.579Z,66.08
2022-09-15T08:53:28.575Z,67.25
2022-09-15T08:54:28.553Z,65.74
2022-09-15T08:55:28.560Z,65.04
2022-09-15T08:56:28.527Z,67.08
2022-09-15T08:57:28.516Z,67.35
2022-09-15T08:58:28.503Z,68.35
2022-09-15T08:59:28.498Z,68.95
2022-09-15T09:00:28.510Z,67.85
2022-09-15T09:01:28.521Z,68.78
2022-09-15T09:02:28.517Z,67.68
2022-09-15T09:03:28.470Z,68.65
2022-09-15T09:04:28.460Z,68.95
2022-09-15T09:05:28.456Z,70.36
2022-09-15T09:06:28.437Z,70.86
2022-09-15T09:07:28.462Z,69.32
2022-09-15T09:08:28.437Z,70.73
2022-09-15T09:09:28.415Z,70.86
2022-09-15T09:10:28.424Z,71.36
2022-09-15T09:11:28.412Z,70.29
2022-09-15T09:12:28.401Z,71.40
2022-09-15T09:13:32.003Z,71.23
2022-09-15T09:14:28.376Z,71.53
2022-09-15T09:15:28.429Z,71.84
2022-09-15T09:16:28.391Z,71.94
2022-09-15T09:17:28.362Z,73.05
2022-09-15T09:18:28.351Z,73.05
2022-09-15T09:19:32.040Z,73.01
2022-09-15T09:20:28.335Z,73.52
2022-09-15T09:21:28.327Z,72.97
2022-09-15T09:22:28.342Z,71.94
2022-09-15T09:23:28.315Z,70.39
2022-09-15T09:24:28.319Z,70.53
2022-09-15T09:25:28.636Z,71.23
2022-09-15T09:26:28.281Z,68.51
2022-09-15T09:27:28.305Z,69.05
2022-09-15T09:28:28.265Z,69.92
2022-09-15T09:29:28.283Z,68.68
2022-09-15T09:30:28.257Z,68.65
2022-09-15T09:31:28.287Z,67.31
2022-09-15T09:32:28.232Z,67.51
2022-09-15T09:33:28.227Z,67.11
2022-09-15T09:34:28.231Z,67.65
2022-09-15T09:35:28.231Z,64.71
2022-09-15T09:36:28.206Z,63.10
2022-09-15T09:37:28.229Z,64.11
2022-09-15T09:38:28.197Z,64.98
2022-09-15T09:39:28.210Z,63.70
2022-09-15T09:40:28.283Z,65.24
2022-09-15T09:41:28.171Z,65.27
2022-09-15T09:42:28.196Z,65.64
2022-09-15T09:43:28.210Z,65.34
2022-09-15T09:44:28.137Z,65.88
2022-09-15T09:45:28.159Z,65.54
2022-09-15T09:46:28.227Z,66.75
2022-09-15T09:47:28.140Z,66.24
2022-09-15T09:48:28.120Z,63.84
2022-09-15T09:49:28.115Z,63.50
2022-09-15T09:50:28.096Z,63.20
2022-09-15T09:51:28.112Z,63.20
2022-09-15T09:52:28.096Z,63.90
2022-09-15T09:53:28.078Z,65.08
2022-09-15T09:54:28.071Z,64.91
2022-09-15T09:55:28.063Z,62.27
2022-09-15T09:56:28.058Z,62.14
2022-09-15T09:57:28.076Z,62.04
2022-09-15T09:58:28.038Z,61.31
2022-09-15T09:59:28.047Z,62.01
2022-09-15T10:00:28.028Z,60.41
2022-09-15T10:01:28.077Z,60.14
2022-09-15T10:02:28.049Z,60.91
2022-09-15T10:03:32.187Z,62.81
2022-09-15T10:04:29.014Z,61.71
2022-09-15T10:05:27.992Z,61.78
2022-09-15T10:06:27.975Z,61.01
2022-09-15T10:07:27.972Z,63.61
2022-09-15T10:08:27.954Z,61.94
2022-09-15T10:09:33.090Z,62.11
2022-09-15T10:10:27.959Z,62.01
2022-09-15T10:11:27.941Z,62.21
2022-09-15T10:12:27.944Z,62.92
2022-09-15T10:13:27.953Z,63.81
2022-09-15T10:14:27.916Z,64.84
2022-09-15T10:15:27.910Z,65.05
2022-09-15T10:16:27.940Z,61.36
2022-09-15T10:17:27.890Z,63.50
2022-09-15T10:18:27.894Z,61.66
2022-09-15T10:19:27.897Z,62.66
2022-09-15T10:20:27.868Z,62.99
2022-09-15T10:21:27.861Z,64.77
2022-09-15T10:22:27.861Z,63.29
2022-09-15T10:23:27.850Z,64.73
2022-09-15T10:24:27.843Z,67.04
2022-09-15T10:25:44.242Z,68.65
2022-09-15T10:26:27.822Z,66.07
2022-09-15T10:27:27.809Z,67.78
2022-09-15T10:28:27.809Z,67.68
2022-09-15T10:29:27.806Z,66.10
2022-09-15T10:30:27.813Z,67.44
2022-09-15T10:31:27.865Z,68.65
2022-09-15T10:32:27.788Z,69.89
2022-09-15T10:33:27.794Z,67.10
2022-09-15T10:34:27.753Z,67.60
2022-09-15T10:35:27.778Z,71.23
2022-09-15T10:36:27.785Z,68.85
2022-09-15T10:37:27.738Z,71.30
2022-09-15T10:38:27.725Z,71.50
2022-09-15T10:39:27.720Z,71.23
2022-09-15T10:40:27.802Z,70.42
2022-09-15T10:41:27.706Z,71.84
2022-09-15T10:42:27.717Z,72.44
2022-09-15T10:43:27.697Z,72.24
2022-09-15T10:44:27.690Z,71.60
2022-09-15T10:45:27.763Z,73.25
2022-09-15T10:46:27.674Z,71.53
2022-09-15T10:47:27.699Z,71.94
2022-09-15T10:48:27.656Z,72.24
2022-09-15T10:49:27.650Z,71.73
2022-09-15T10:50:27.639Z,71.40
2022-09-15T10:51:27.652Z,69.82
2022-09-15T10:52:27.624Z,71.94
2022-09-15T10:53:27.664Z,72.14
2022-09-15T10:54:27.637Z,72.64
2022-09-15T10:55:48.493Z,72.64
2022-09-15T10:56:27.594Z,73.79
2022-09-15T10:58:27.583Z,74.10
2022-09-15T10:59:27.593Z,74.40
2022-09-15T11:00:27.563Z,74.26
2022-09-15T11:01:27.588Z,71.53
2022-09-15T11:02:27.586Z,71.44
2022-09-15T11:03:27.546Z,71.84
2022-09-15T11:04:27.530Z,72.61
2022-09-15T11:05:27.545Z,72.85
2022-09-15T11:06:27.517Z,71.00
2022-09-15T11:07:27.506Z,71.40
2022-09-15T11:08:27.498Z,72.14
2022-09-15T11:09:27.485Z,71.44
2022-09-15T11:10:27.491Z,72.58
2022-09-15T11:11:27.490Z,72.08
2022-09-15T11:12:29.444Z,72.78
2022-09-15T11:13:27.455Z,72.58
2022-09-15T11:14:27.445Z,74.10
2022-09-15T11:15:27.458Z,73.90
2022-09-15T11:16:27.469Z,71.87
2022-09-15T11:17:27.416Z,72.17
2022-09-15T11:18:27.420Z,72.58
2022-09-15T11:19:27.422Z,73.90
2022-09-15T11:20:27.413Z,73.28
2022-09-15T11:21:27.386Z,72.28
2022-09-15T11:22:27.375Z,72.28
2022-09-15T11:23:27.383Z,72.68
2022-09-15T11:24:27.361Z,72.78
2022-09-15T11:25:27.355Z,73.49
2022-09-15T11:26:27.365Z,73.49
2022-09-15T11:27:27.362Z,72.68
2022-09-15T11:28:27.331Z,72.78
2022-09-15T11:29:27.317Z,71.94
2022-09-15T11:30:27.310Z,72.64
2022-09-15T11:31:27.341Z,72.24
2022-09-15T11:32:27.306Z,71.23
2022-09-15T11:33:27.303Z,71.70
2022-09-15T11:34:27.278Z,71.80
2022-09-15T11:35:27.267Z,73.86
2022-09-15T11:36:27.262Z,73.93
2022-09-15T11:37:27.252Z,72.11
2022-09-15T11:38:27.240Z,72.71
2022-09-15T11:39:27.258Z,71.70
2022-09-15T11:40:27.290Z,72.91
2022-09-15T11:41:27.216Z,73.42
2022-09-15T11:42:27.211Z,72.91
2022-09-15T11:43:27.196Z,69.78
2022-09-15T11:44:27.193Z,69.71
2022-09-15T11:45:27.207Z,71.03
2022-09-15T11:46:27.219Z,72.04
2022-09-15T11:47:27.165Z,69.71
2022-09-15T11:48:27.163Z,68.60
2022-09-15T11:49:27.145Z,69.92
2022-09-15T11:50:27.144Z,70.53
2022-09-15T11:51:27.142Z,70.42
2022-09-15T11:52:27.128Z,68.80
2022-09-15T11:53:27.117Z,67.66
2022-09-15T11:54:29.984Z,67.76
2022-09-15T11:55:27.093Z,68.57
2022-09-15T11:56:27.087Z,66.35
2022-09-15T11:57:27.097Z,67.53
2022-09-15T11:58:27.066Z,66.93
2022-09-15T11:59:27.085Z,68.01
2022-09-15T12:00:27.056Z,67.90
2022-09-15T12:01:27.125Z,68.10
2022-09-15T12:02:27.223Z,67.19
2022-09-15T12:03:27.061Z,65.48
2022-09-15T12:04:27.032Z,66.39
2022-09-15T12:05:27.017Z,64.44
2022-09-15T12:06:27.009Z,63.33
2022-09-15T12:07:27.028Z,63.73
2022-09-15T12:08:27.007Z,63.60
2022-09-15T12:09:27.001Z,61.86
2022-09-15T12:10:27.046Z,61.86
2022-09-15T12:11:26.992Z,62.77
2022-09-15T12:12:30.645Z,61.76
2022-09-15T12:13:26.945Z,61.16
2022-09-15T12:14:26.969Z,61.66
2022-09-15T12:15:26.937Z,60.45
2022-09-15T12:16:26.934Z,59.95
2022-09-15T12:17:26.917Z,61.05
2022-09-15T12:18:38.478Z,60.05
2022-09-15T12:19:27.925Z,60.15
2022-09-15T12:20:26.892Z,61.53
2022-09-15T12:21:26.887Z,60.35
2022-09-15T12:22:26.879Z,61.56
2022-09-15T12:23:26.873Z,62.06
2022-09-15T12:24:26.851Z,61.53
2022-09-15T12:25:26.863Z,61.16
2022-09-15T12:26:26.858Z,59.14
2022-09-15T12:27:26.831Z,60.85
2022-09-15T12:28:26.902Z,61.46
2022-09-15T12:29:26.808Z,61.96
2022-09-15T12:30:26.814Z,62.37
2022-09-15T12:31:26.873Z,61.56
2022-09-15T12:32:26.795Z,60.22
2022-09-15T12:33:26.787Z,59.42
2022-09-15T12:34:26.766Z,59.52
2022-09-15T12:35:26.784Z,61.13
2022-09-15T12:36:26.763Z,61.43
2022-09-15T12:37:26.749Z,62.13
2022-09-15T12:38:26.738Z,60.72
2022-09-15T12:39:26.730Z,59.52
2022-09-15T12:40:26.808Z,59.28
2022-09-15T12:41:26.713Z,60.67
2022-09-15T12:42:26.705Z,60.27
2022-09-15T12:43:26.703Z,59.76
2022-09-15T12:44:26.698Z,58.80
2022-09-15T12:45:26.695Z,56.99
2022-09-15T12:46:26.761Z,58.77
2022-09-15T12:47:26.687Z,59.08
2022-09-15T12:48:26.665Z,56.06
2022-09-15T12:49:26.649Z,53.25
2022-09-15T12:50:26.712Z,53.92
2022-09-15T12:51:26.635Z,53.42
2022-09-15T12:52:26.641Z,53.92
2022-09-15T12:53:26.650Z,55.93
2022-09-15T12:54:26.613Z,52.82